Cape Romanzof LRRS Airport Cape Romanzof US
ICAO: PACZ
IATA:
Category: Medium
Scheduled Services:

Elevation: 464 ft
TransAlt. 18000 ft.

Airport Communications:
ANCHORAGE ARTCC:124.5
ANCHORAGE CNTR:132.5
KENAI RDO:122.1
INFO:126.2

PACZ Zoom In..

If you have problems with the map follow the link
https://www.worldairports.se/pages/airport.php?
ICAO=PACZ

Runways:

(A) RW 02 length 3925 ft width 161 ft
---- / hdg 16

(B) RW 20 length 3925 ft width 161 ft
---- / hdg 196

Location; PACZ
Day. 23 / Time. 17.55 Zulu
* Altimeter: 29.22
* Temperature: 03° c. 37.4°f.
* Wind from: 030° Speed 17 kn.
Dewpoint: 03° c.
Visibility: 10 Statute Miles.
Clouds: Few 400 ft.
Clouds: Broken 2900 ft.

PACZ 231755Z 03017KT 10SM FEW004 BKN029 03/03 A2922 RMK AO2A SLP897 58019


Wind From 030°
Speed 17 kn.

 
 
jpsmedia.com for Web Design worldairports.se 2018   terms of use